createdAt,value
2017-10-12T00:00:19.971Z,15.31
2017-10-12T00:01:25.729Z,15.36
2017-10-12T00:02:31.489Z,15.36
2017-10-12T00:03:37.295Z,15.39
2017-10-12T00:04:43.139Z,15.43
2017-10-12T00:05:48.971Z,15.41
2017-10-12T00:06:55.520Z,15.41
2017-10-12T00:08:02.065Z,15.47
2017-10-12T00:09:07.855Z,15.53
2017-10-12T00:10:13.616Z,15.57
2017-10-12T00:11:19.176Z,15.59
2017-10-12T00:12:24.540Z,15.62
2017-10-12T00:13:31.073Z,15.59
2017-10-12T00:14:36.840Z,15.65
2017-10-12T00:15:43.373Z,15.65
2017-10-12T00:16:49.364Z,15.68
2017-10-12T00:17:55.109Z,15.67
2017-10-12T00:19:00.861Z,15.65
2017-10-12T00:20:06.232Z,15.67
2017-10-12T00:21:11.992Z,15.68
2017-10-12T00:22:18.445Z,15.70
2017-10-12T00:23:24.191Z,15.68
2017-10-12T00:24:30.713Z,15.70
2017-10-12T00:25:36.473Z,15.67
2017-10-12T00:26:42.245Z,15.62
2017-10-12T00:27:48.788Z,15.58
2017-10-12T00:28:54.529Z,15.58
2017-10-12T00:30:00.276Z,15.62
2017-10-12T00:31:06.592Z,15.64
2017-10-12T00:33:17.010Z,15.57
2017-10-12T00:34:22.555Z,15.48
2017-10-12T00:35:28.325Z,15.30
2017-10-12T00:36:34.080Z,15.29
2017-10-12T00:37:39.837Z,15.29
2017-10-12T00:38:45.617Z,15.37
2017-10-12T00:39:51.365Z,15.41
2017-10-12T00:40:56.748Z,15.36
2017-10-12T00:42:02.505Z,15.37
2017-10-12T00:43:08.253Z,15.34
2017-10-12T00:44:14.451Z,15.34
2017-10-12T00:45:20.028Z,15.32
2017-10-12T00:46:25.478Z,15.30
2017-10-12T00:47:32.012Z,15.25
2017-10-12T00:48:37.757Z,15.19
2017-10-12T00:49:43.536Z,15.14
2017-10-12T00:50:49.385Z,15.14
2017-10-12T00:51:55.138Z,15.13
2017-10-12T00:53:00.888Z,15.07
2017-10-12T00:54:06.639Z,15.03
2017-10-12T00:55:12.414Z,14.98
2017-10-12T00:56:18.166Z,14.94
2017-10-12T00:57:24.745Z,14.90
2017-10-12T00:58:30.488Z,14.87
2017-10-12T00:59:36.819Z,14.86
2017-10-12T01:00:42.672Z,14.83
2017-10-12T01:01:48.867Z,14.81
2017-10-12T01:02:54.279Z,14.84
2017-10-12T01:04:00.036Z,14.83
2017-10-12T01:05:05.794Z,14.82
2017-10-12T01:06:11.586Z,14.84
2017-10-12T01:07:17.161Z,14.83
2017-10-12T01:08:22.916Z,14.82
2017-10-12T01:09:28.488Z,14.81
2017-10-12T01:10:35.009Z,14.80
2017-10-12T01:11:40.453Z,14.81
2017-10-12T01:12:46.207Z,14.83
2017-10-12T01:13:51.967Z,14.83
2017-10-12T01:14:58.313Z,14.83
2017-10-12T01:16:04.090Z,14.78
2017-10-12T01:17:10.117Z,14.78
2017-10-12T01:18:16.639Z,14.80
2017-10-12T01:19:21.697Z,14.77
2017-10-12T01:20:28.010Z,14.76
2017-10-12T01:21:33.113Z,14.78
2017-10-12T01:22:38.207Z,14.77
2017-10-12T01:23:44.045Z,14.76
2017-10-12T01:24:49.892Z,14.74
2017-10-12T01:25:56.058Z,14.70
2017-10-12T01:27:00.966Z,14.71
2017-10-12T01:28:07.245Z,14.72
2017-10-12T01:29:12.311Z,14.68
2017-10-12T01:30:17.739Z,14.67
2017-10-12T01:31:23.229Z,14.67
2017-10-12T01:32:29.124Z,14.65
2017-10-12T01:33:34.216Z,14.62
2017-10-12T01:34:39.277Z,14.65
2017-10-12T01:35:44.342Z,14.67
2017-10-12T01:36:49.411Z,14.66
2017-10-12T01:37:54.500Z,14.64
2017-10-12T01:38:59.402Z,14.63
2017-10-12T01:40:05.046Z,14.63
2017-10-12T01:41:11.232Z,14.64
2017-10-12T01:42:16.292Z,14.63
2017-10-12T01:43:21.698Z,14.61
2017-10-12T01:44:26.785Z,14.58
2017-10-12T01:45:32.658Z,14.59
2017-10-12T01:46:37.767Z,14.60
2017-10-12T01:47:43.518Z,14.61
2017-10-12T01:48:58.123Z,14.60
2017-10-12T01:50:04.104Z,14.57
2017-10-12T01:51:09.155Z,14.61
2017-10-12T01:52:14.913Z,14.64
2017-10-12T01:53:20.306Z,14.65
2017-10-12T01:54:26.060Z,14.62
2017-10-12T01:55:31.844Z,14.61
2017-10-12T01:56:37.600Z,14.61
2017-10-12T01:57:44.129Z,14.62
2017-10-12T01:58:49.872Z,14.59
2017-10-12T01:59:55.624Z,14.60
2017-10-12T02:01:01.830Z,14.61
2017-10-12T02:02:07.584Z,14.58
2017-10-12T02:03:13.346Z,14.55
2017-10-12T02:04:19.148Z,14.57
2017-10-12T02:05:24.905Z,14.57
2017-10-12T02:06:30.333Z,14.57
2017-10-12T02:07:36.085Z,14.60
2017-10-12T02:08:41.835Z,14.58
2017-10-12T02:09:47.627Z,14.58
2017-10-12T02:10:53.800Z,14.55
2017-10-12T02:11:59.834Z,14.54
2017-10-12T02:13:06.407Z,14.55
2017-10-12T02:14:12.150Z,14.58
2017-10-12T02:15:17.897Z,14.56
2017-10-12T02:16:23.653Z,14.57
2017-10-12T02:17:29.425Z,14.56
2017-10-12T02:18:35.216Z,14.56
2017-10-12T02:19:41.825Z,14.56
2017-10-12T02:20:47.597Z,14.56
2017-10-12T02:21:54.109Z,14.59
2017-10-12T02:22:59.888Z,14.55
2017-10-12T02:24:05.641Z,14.55
2017-10-12T02:25:12.164Z,14.53
2017-10-12T02:26:18.578Z,14.50
2017-10-12T02:27:24.326Z,14.49
2017-10-12T02:28:30.141Z,14.51
2017-10-12T02:29:36.656Z,14.49
2017-10-12T02:30:42.422Z,14.47
2017-10-12T02:31:48.941Z,14.47
2017-10-12T02:32:54.493Z,14.47
2017-10-12T02:34:01.121Z,14.47
2017-10-12T02:35:06.869Z,14.49
2017-10-12T02:36:12.621Z,14.52
2017-10-12T02:37:18.376Z,14.55
2017-10-12T02:38:24.124Z,14.60
2017-10-12T02:39:29.911Z,14.64
2017-10-12T02:40:36.421Z,14.70
2017-10-12T02:41:42.186Z,14.71
2017-10-12T02:42:47.590Z,14.73
2017-10-12T02:43:53.223Z,14.73
2017-10-12T02:44:58.809Z,14.79
2017-10-12T02:46:04.400Z,14.75
2017-10-12T02:47:10.161Z,14.74
2017-10-12T02:48:15.958Z,14.71
2017-10-12T02:49:21.702Z,14.71
2017-10-12T02:50:27.540Z,14.66
2017-10-12T02:51:33.300Z,14.63
2017-10-12T02:52:39.052Z,14.60
2017-10-12T02:53:44.798Z,14.60
2017-10-12T02:54:50.553Z,14.63
2017-10-12T02:55:55.992Z,14.60
2017-10-12T02:57:02.514Z,14.55
2017-10-12T02:58:08.270Z,14.52
2017-10-12T02:59:14.011Z,14.52
2017-10-12T03:00:19.428Z,14.50
2017-10-12T03:01:25.205Z,14.45
2017-10-12T03:02:30.620Z,14.41
2017-10-12T03:03:36.372Z,14.43
2017-10-12T03:04:42.125Z,14.41
2017-10-12T03:05:47.872Z,14.36
2017-10-12T03:06:53.657Z,14.36
2017-10-12T03:07:59.213Z,14.35
2017-10-12T03:09:03.838Z,14.34
2017-10-12T03:10:09.601Z,14.32
2017-10-12T03:11:15.350Z,14.30
2017-10-12T03:12:20.951Z,14.30
2017-10-12T03:13:26.715Z,14.29
2017-10-12T03:14:32.617Z,14.27
2017-10-12T03:15:37.692Z,14.27
2017-10-12T03:16:42.727Z,14.27
2017-10-12T03:17:48.769Z,14.22
2017-10-12T03:18:54.176Z,14.20
2017-10-12T03:19:59.940Z,14.21
2017-10-12T03:21:05.688Z,14.21
2017-10-12T03:22:11.456Z,14.21
2017-10-12T03:23:17.996Z,14.20
2017-10-12T03:24:23.752Z,14.18
2017-10-12T03:25:30.360Z,14.18
2017-10-12T03:26:35.770Z,14.16
2017-10-12T03:27:41.577Z,14.22
2017-10-12T03:28:47.403Z,14.24
2017-10-12T03:29:53.160Z,14.24
2017-10-12T03:30:59.006Z,14.27
2017-10-12T03:32:04.790Z,14.28
2017-10-12T03:33:10.532Z,14.28
2017-10-12T03:34:16.340Z,14.27
2017-10-12T03:35:22.678Z,14.27
2017-10-12T03:36:28.236Z,14.28
2017-10-12T03:37:34.585Z,14.32
2017-10-12T03:38:40.924Z,14.35
2017-10-12T03:39:46.715Z,14.33
2017-10-12T03:40:52.276Z,14.32
2017-10-12T03:41:58.024Z,14.36
2017-10-12T03:43:03.584Z,14.40
2017-10-12T03:44:09.206Z,14.38
2017-10-12T03:45:14.649Z,14.44
2017-10-12T03:46:20.262Z,14.44
2017-10-12T03:47:26.009Z,14.48
2017-10-12T03:48:31.593Z,14.50
2017-10-12T03:49:37.932Z,14.51
2017-10-12T03:50:42.827Z,14.54
2017-10-12T03:51:48.399Z,14.56
2017-10-12T03:52:54.169Z,14.57
2017-10-12T03:53:59.980Z,14.60
2017-10-12T03:55:05.732Z,14.66
2017-10-12T03:56:12.275Z,14.72
2017-10-12T03:57:18.024Z,14.70
2017-10-12T03:58:23.774Z,14.68
2017-10-12T03:59:30.296Z,14.67
2017-10-12T04:00:36.052Z,14.64
2017-10-12T04:01:41.650Z,14.66
2017-10-12T04:02:47.404Z,14.67
2017-10-12T04:03:53.155Z,14.69
2017-10-12T04:04:58.709Z,14.65
2017-10-12T04:06:04.474Z,14.62
2017-10-12T04:07:11.008Z,14.60
2017-10-12T04:08:16.759Z,14.60
2017-10-12T04:09:22.513Z,14.58
2017-10-12T04:10:29.029Z,14.59
2017-10-12T04:11:34.860Z,14.63
2017-10-12T04:12:40.658Z,14.65
2017-10-12T04:13:47.174Z,14.71
2017-10-12T04:14:52.984Z,14.75
2017-10-12T04:15:58.741Z,14.77
2017-10-12T04:17:04.489Z,14.80
2017-10-12T04:18:10.274Z,14.84
2017-10-12T04:19:15.832Z,14.85
2017-10-12T04:20:22.353Z,14.88
2017-10-12T04:21:28.092Z,14.91
2017-10-12T04:22:33.844Z,14.95
2017-10-12T04:23:39.435Z,14.94
2017-10-12T04:24:45.193Z,14.91
2017-10-12T04:25:50.976Z,14.93
2017-10-12T04:26:56.738Z,14.92
2017-10-12T04:28:03.060Z,14.93
2017-10-12T04:29:08.837Z,14.93
2017-10-12T04:30:15.368Z,14.95
2017-10-12T04:31:21.124Z,14.98
2017-10-12T04:32:27.636Z,14.99
2017-10-12T04:33:33.448Z,14.99
2017-10-12T04:34:39.229Z,15.05
2017-10-12T04:35:45.009Z,15.06
2017-10-12T04:36:51.600Z,15.09
2017-10-12T04:37:57.349Z,15.15
2017-10-12T04:39:03.120Z,15.21
2017-10-12T04:40:08.904Z,15.22
2017-10-12T04:41:15.532Z,15.28
2017-10-12T04:42:21.296Z,15.30
2017-10-12T04:43:27.827Z,15.35
2017-10-12T04:44:33.585Z,15.35
2017-10-12T04:45:39.357Z,15.32
2017-10-12T04:46:45.121Z,15.34
2017-10-12T04:47:50.868Z,15.44
2017-10-12T04:48:56.633Z,15.39
2017-10-12T04:50:02.393Z,15.43
2017-10-12T04:51:07.968Z,15.52
2017-10-12T04:52:13.726Z,15.47
2017-10-12T04:53:19.296Z,15.48
2017-10-12T04:54:25.824Z,15.47
2017-10-12T04:55:31.573Z,15.48
2017-10-12T04:56:37.163Z,15.50
2017-10-12T04:57:43.691Z,15.46
2017-10-12T04:58:49.440Z,15.45
2017-10-12T04:59:55.037Z,15.39
2017-10-12T05:01:00.778Z,15.41
2017-10-12T05:02:06.553Z,15.39
2017-10-12T05:03:12.336Z,15.36
2017-10-12T05:04:18.672Z,15.43
2017-10-12T05:05:24.433Z,15.46
2017-10-12T05:06:30.193Z,15.48
2017-10-12T05:07:35.987Z,15.47
2017-10-12T05:08:41.749Z,15.43
2017-10-12T05:09:48.272Z,15.50
2017-10-12T05:10:54.027Z,15.58
2017-10-12T05:12:00.537Z,15.60
2017-10-12T05:13:06.328Z,15.61
2017-10-12T05:14:12.080Z,15.58
2017-10-12T05:15:17.837Z,15.59
2017-10-12T05:16:24.370Z,15.63
2017-10-12T05:17:30.124Z,15.65
2017-10-12T05:18:36.477Z,15.70
2017-10-12T05:19:42.240Z,15.74
2017-10-12T05:20:48.769Z,15.72
2017-10-12T05:21:54.349Z,15.67
2017-10-12T05:23:00.104Z,15.68
2017-10-12T05:24:05.882Z,15.69
2017-10-12T05:25:11.642Z,15.69
2017-10-12T05:26:17.397Z,15.73
2017-10-12T05:27:23.911Z,15.73
2017-10-12T05:28:29.664Z,15.72
2017-10-12T05:29:35.439Z,15.69
2017-10-12T05:30:42.050Z,15.71
2017-10-12T05:31:47.796Z,15.70
2017-10-12T05:32:53.544Z,15.73
2017-10-12T05:33:59.301Z,15.72
2017-10-12T05:35:05.084Z,15.73
2017-10-12T05:36:10.849Z,15.69
2017-10-12T05:37:16.601Z,15.77
2017-10-12T05:38:22.383Z,15.81
2017-10-12T05:39:28.912Z,15.79
2017-10-12T05:40:34.710Z,15.79
2017-10-12T05:41:40.535Z,15.79
2017-10-12T05:42:47.045Z,15.83
2017-10-12T05:43:52.804Z,15.84
2017-10-12T05:44:58.597Z,15.87
2017-10-12T05:46:04.444Z,15.91
2017-10-12T05:47:10.193Z,15.85
2017-10-12T05:48:15.760Z,15.90
2017-10-12T05:49:21.513Z,15.90
2017-10-12T05:50:27.273Z,15.89
2017-10-12T05:51:33.055Z,15.91
2017-10-12T05:52:38.800Z,15.92
2017-10-12T05:53:44.565Z,15.94
2017-10-12T05:54:50.129Z,15.95
2017-10-12T05:55:55.890Z,15.98
2017-10-12T05:57:02.432Z,16.01
2017-10-12T05:58:08.001Z,16.10
2017-10-12T05:59:13.752Z,16.15
2017-10-12T06:00:19.870Z,16.20
2017-10-12T06:01:25.617Z,16.14
2017-10-12T06:02:32.168Z,16.13
2017-10-12T06:03:38.679Z,16.19
2017-10-12T06:04:44.432Z,16.26
2017-10-12T06:05:50.197Z,16.23
2017-10-12T06:06:55.947Z,16.25
2017-10-12T06:08:02.502Z,16.21
2017-10-12T06:09:09.100Z,16.15
2017-10-12T06:10:14.660Z,16.17
2017-10-12T06:11:20.408Z,16.19
2017-10-12T06:12:25.980Z,16.26
2017-10-12T06:13:31.570Z,16.28
2017-10-12T06:14:37.172Z,16.27
2017-10-12T06:15:42.716Z,16.29
2017-10-12T06:16:49.236Z,16.25
2017-10-12T06:17:55.001Z,16.26
2017-10-12T06:19:00.779Z,16.22
2017-10-12T06:20:06.548Z,16.24
2017-10-12T06:21:12.307Z,16.23
2017-10-12T06:22:18.061Z,16.26
2017-10-12T06:23:23.821Z,16.36
2017-10-12T06:24:30.395Z,16.42
2017-10-12T06:25:36.955Z,16.49
2017-10-12T06:26:42.719Z,16.56
2017-10-12T06:27:48.474Z,16.61
2017-10-12T06:28:54.285Z,16.62
2017-10-12T06:29:59.880Z,16.67
2017-10-12T06:31:05.794Z,16.70
2017-10-12T06:32:11.366Z,16.77
2017-10-12T06:33:17.168Z,16.78
2017-10-12T06:34:22.960Z,16.83
2017-10-12T06:35:29.513Z,16.89
2017-10-12T06:36:35.265Z,16.86
2017-10-12T06:37:41.813Z,16.80
2017-10-12T06:38:47.582Z,16.78
2017-10-12T06:39:53.359Z,16.77
2017-10-12T06:40:59.141Z,16.78
2017-10-12T06:42:04.372Z,16.78
2017-10-12T06:43:10.147Z,16.79
2017-10-12T06:44:15.901Z,16.73
2017-10-12T06:45:21.657Z,16.70
2017-10-12T06:46:27.521Z,16.69
2017-10-12T06:47:33.286Z,16.66
2017-10-12T06:48:39.070Z,16.67
2017-10-12T06:49:44.882Z,16.71
2017-10-12T06:50:51.458Z,16.71
2017-10-12T06:51:56.892Z,16.68
2017-10-12T06:53:02.656Z,16.68
2017-10-12T06:54:08.448Z,16.71
2017-10-12T06:55:14.961Z,16.74
2017-10-12T06:56:20.708Z,16.72
2017-10-12T06:57:26.496Z,16.74
2017-10-12T06:58:33.096Z,16.83
2017-10-12T06:59:38.849Z,16.93
2017-10-12T07:00:44.593Z,16.98
2017-10-12T07:01:50.346Z,17.00
2017-10-12T07:02:56.124Z,17.06
2017-10-12T07:04:02.644Z,17.07
2017-10-12T07:05:08.413Z,17.03
2017-10-12T07:06:14.161Z,17.08
2017-10-12T07:07:20.673Z,17.15
2017-10-12T07:08:26.456Z,17.24
2017-10-12T07:09:32.206Z,17.30
2017-10-12T07:10:38.727Z,17.26
2017-10-12T07:11:44.535Z,17.30
2017-10-12T07:12:50.281Z,17.36
2017-10-12T07:13:56.057Z,17.43
2017-10-12T07:15:01.629Z,17.43
2017-10-12T07:16:08.151Z,17.49
2017-10-12T07:17:13.904Z,17.49
2017-10-12T07:18:19.464Z,17.49
2017-10-12T07:19:26.051Z,17.53
2017-10-12T07:20:31.801Z,17.49
2017-10-12T07:21:37.412Z,17.56
2017-10-12T07:22:44.007Z,17.65
2017-10-12T07:23:49.757Z,17.65
2017-10-12T07:24:55.537Z,17.69
2017-10-12T07:26:01.286Z,17.73
2017-10-12T07:27:07.036Z,17.71
2017-10-12T07:28:13.564Z,17.75
2017-10-12T07:29:19.332Z,17.91
2017-10-12T07:30:25.184Z,18.21
2017-10-12T07:31:31.709Z,18.55
2017-10-12T07:32:37.453Z,19.07
2017-10-12T07:33:43.205Z,19.58
2017-10-12T07:34:50.456Z,19.73
2017-10-12T07:35:56.238Z,19.78
2017-10-12T07:37:02.749Z,20.00
2017-10-12T07:38:08.508Z,20.10
2017-10-12T07:39:14.272Z,20.44
2017-10-12T07:40:19.845Z,20.74
2017-10-12T07:41:25.620Z,20.97
2017-10-12T07:42:31.368Z,21.37
2017-10-12T07:43:37.218Z,21.69
2017-10-12T07:44:42.968Z,22.03
2017-10-12T07:45:48.718Z,22.24
2017-10-12T07:46:54.500Z,22.11
2017-10-12T07:48:00.245Z,22.21
2017-10-12T07:49:06.001Z,21.95
2017-10-12T07:50:11.761Z,22.02
2017-10-12T07:51:17.514Z,22.28
2017-10-12T07:52:23.295Z,22.48
2017-10-12T07:53:29.040Z,22.60
2017-10-12T07:54:34.797Z,22.69
2017-10-12T07:55:40.555Z,23.01
2017-10-12T07:56:46.305Z,23.11
2017-10-12T07:57:52.103Z,23.20
2017-10-12T07:58:57.888Z,23.16
2017-10-12T08:00:03.651Z,23.52
2017-10-12T08:01:09.417Z,23.63
2017-10-12T08:02:15.941Z,23.75
2017-10-12T08:03:21.715Z,24.18
2017-10-12T08:04:28.048Z,24.56
2017-10-12T08:05:35.314Z,24.83
2017-10-12T08:06:41.060Z,24.75
2017-10-12T08:07:46.808Z,25.11
2017-10-12T08:08:52.594Z,25.26
2017-10-12T08:09:58.348Z,25.70
2017-10-12T08:11:04.113Z,25.70
2017-10-12T08:12:09.857Z,25.47
2017-10-12T08:13:15.613Z,25.18
2017-10-12T08:14:21.388Z,25.32
2017-10-12T08:15:27.912Z,25.39
2017-10-12T08:16:33.713Z,25.64
2017-10-12T08:17:39.458Z,25.76
2017-10-12T08:18:45.204Z,25.77
2017-10-12T08:19:50.984Z,26.04
2017-10-12T08:20:56.746Z,26.20
2017-10-12T08:22:03.280Z,26.43
2017-10-12T08:23:09.030Z,25.82
2017-10-12T08:24:14.796Z,26.05
2017-10-12T08:25:21.165Z,25.65
2017-10-12T08:26:26.955Z,25.26
2017-10-12T08:27:32.514Z,25.27
2017-10-12T08:28:38.281Z,25.25
2017-10-12T08:29:44.608Z,25.52
2017-10-12T08:30:50.384Z,25.38
2017-10-12T08:31:56.225Z,25.54
2017-10-12T08:33:01.967Z,25.14
2017-10-12T08:34:07.753Z,25.38
2017-10-12T08:35:14.519Z,25.38
2017-10-12T08:36:20.305Z,25.48
2017-10-12T08:37:26.815Z,25.31
2017-10-12T08:38:32.560Z,25.27
2017-10-12T08:39:38.120Z,25.38
2017-10-12T08:40:44.640Z,25.24
2017-10-12T08:41:50.355Z,25.45
2017-10-12T08:42:56.506Z,25.97
2017-10-12T08:44:02.108Z,25.85
2017-10-12T08:45:07.860Z,25.82
2017-10-12T08:46:14.377Z,25.53
2017-10-12T08:47:19.980Z,25.26
2017-10-12T08:48:25.728Z,25.60
2017-10-12T08:49:31.288Z,25.82
2017-10-12T08:50:36.860Z,26.20
2017-10-12T08:51:42.430Z,25.99
2017-10-12T08:52:48.212Z,25.91
2017-10-12T08:53:53.953Z,25.86
2017-10-12T08:54:59.758Z,25.95
2017-10-12T08:56:05.501Z,26.04
2017-10-12T08:57:11.343Z,26.34
2017-10-12T08:58:17.109Z,26.55
2017-10-12T08:59:22.856Z,26.97
2017-10-12T09:00:28.593Z,26.57
2017-10-12T09:01:34.356Z,26.35
2017-10-12T09:02:40.106Z,26.51
2017-10-12T09:03:45.882Z,26.65
2017-10-12T09:04:52.408Z,26.90
2017-10-12T09:05:58.157Z,26.78
2017-10-12T09:07:03.905Z,26.47
2017-10-12T09:08:10.238Z,26.51
2017-10-12T09:09:16.014Z,26.85
2017-10-12T09:10:22.385Z,27.06
2017-10-12T09:11:28.168Z,26.83
2017-10-12T09:12:33.907Z,26.49
2017-10-12T09:13:39.656Z,25.94
2017-10-12T09:14:45.609Z,25.79
2017-10-12T09:15:51.369Z,25.32
2017-10-12T09:16:56.933Z,25.31
2017-10-12T09:18:02.693Z,24.95
2017-10-12T09:19:08.442Z,24.70
2017-10-12T09:20:14.217Z,24.78
2017-10-12T09:21:19.984Z,24.47
2017-10-12T09:22:26.315Z,24.18
2017-10-12T09:23:32.068Z,24.07
2017-10-12T09:24:38.614Z,24.03
2017-10-12T09:25:44.385Z,23.91
2017-10-12T09:26:50.724Z,24.18
2017-10-12T09:27:56.925Z,24.16
2017-10-12T09:29:02.321Z,24.16
2017-10-12T09:30:08.578Z,24.28
2017-10-12T09:31:14.776Z,24.32
2017-10-12T09:32:19.869Z,24.33
2017-10-12T09:33:25.081Z,24.23
2017-10-12T09:34:31.260Z,24.12
2017-10-12T09:35:36.113Z,23.88
2017-10-12T09:36:41.012Z,23.59
2017-10-12T09:37:46.448Z,23.54
2017-10-12T09:38:51.524Z,23.59
2017-10-12T09:39:57.351Z,23.51
2017-10-12T09:41:03.180Z,23.56
2017-10-12T09:42:08.786Z,23.69
2017-10-12T09:43:14.365Z,23.97
2017-10-12T09:44:19.623Z,24.17
2017-10-12T09:45:25.824Z,24.16
2017-10-12T09:46:31.237Z,24.31
2017-10-12T09:47:36.334Z,24.02
2017-10-12T09:48:42.853Z,23.95
2017-10-12T09:49:48.599Z,24.05
2017-10-12T09:50:53.668Z,23.97
2017-10-12T09:51:59.476Z,24.08
2017-10-12T09:53:04.972Z,23.96
2017-10-12T09:54:10.389Z,24.00
2017-10-12T09:55:15.585Z,23.89
2017-10-12T09:56:21.899Z,23.91
2017-10-12T09:57:27.668Z,23.77
2017-10-12T09:58:33.277Z,23.80
2017-10-12T09:59:39.036Z,23.69
2017-10-12T10:00:44.789Z,23.59
2017-10-12T10:01:50.200Z,23.61
2017-10-12T10:02:55.977Z,23.68
2017-10-12T10:04:01.570Z,23.48
2017-10-12T10:05:07.416Z,23.24
2017-10-12T10:06:13.180Z,23.19
2017-10-12T10:07:18.928Z,23.04
2017-10-12T10:08:24.509Z,23.07
2017-10-12T10:09:30.290Z,23.31
2017-10-12T10:10:36.040Z,23.27
2017-10-12T10:11:41.809Z,23.29
2017-10-12T10:12:48.328Z,23.38
2017-10-12T10:13:54.333Z,23.19
2017-10-12T10:15:00.118Z,23.14
2017-10-12T10:16:05.200Z,23.24
2017-10-12T10:17:11.716Z,23.15
2017-10-12T10:18:17.275Z,23.18
2017-10-12T10:19:23.022Z,23.01
2017-10-12T10:20:29.589Z,23.01
2017-10-12T10:21:36.094Z,23.18
2017-10-12T10:22:41.851Z,22.96
2017-10-12T10:23:47.613Z,22.87
2017-10-12T10:24:53.391Z,23.08
2017-10-12T10:25:58.957Z,22.83
2017-10-12T10:27:04.700Z,22.82
2017-10-12T10:28:10.273Z,22.91
2017-10-12T10:29:15.092Z,22.90
2017-10-12T10:30:20.869Z,22.86
2017-10-12T10:31:26.659Z,22.94
2017-10-12T10:32:32.413Z,22.79
2017-10-12T10:33:37.979Z,22.79
2017-10-12T10:34:44.493Z,22.81
2017-10-12T10:35:50.060Z,22.70
2017-10-12T10:36:56.634Z,22.77
2017-10-12T10:38:03.141Z,22.75
2017-10-12T10:39:08.914Z,22.68
2017-10-12T10:40:14.687Z,22.55
2017-10-12T10:41:21.198Z,22.60
2017-10-12T10:42:27.745Z,22.25
2017-10-12T10:43:33.495Z,22.38
2017-10-12T10:44:39.245Z,22.04
2017-10-12T10:45:45.004Z,22.18
2017-10-12T10:46:51.523Z,22.06
2017-10-12T10:47:57.299Z,22.22
2017-10-12T10:49:03.045Z,22.15
2017-10-12T10:50:09.195Z,22.13
2017-10-12T10:51:15.718Z,21.87
2017-10-12T10:52:21.485Z,22.05
2017-10-12T10:53:27.670Z,22.10
2017-10-12T10:54:33.417Z,21.57
2017-10-12T10:55:39.169Z,21.47
2017-10-12T10:56:44.916Z,21.57
2017-10-12T10:57:50.678Z,21.52
2017-10-12T10:58:56.453Z,21.56
2017-10-12T11:00:02.240Z,21.23
2017-10-12T11:01:07.988Z,21.41
2017-10-12T11:02:13.760Z,21.43
2017-10-12T11:03:19.344Z,21.25
2017-10-12T11:04:25.129Z,21.05
2017-10-12T11:05:30.881Z,21.22
2017-10-12T11:06:36.633Z,21.39
2017-10-12T11:07:42.445Z,21.29
2017-10-12T11:08:48.197Z,21.24
2017-10-12T11:09:53.972Z,21.15
2017-10-12T11:11:00.489Z,21.22
2017-10-12T11:12:06.254Z,21.28
2017-10-12T11:13:12.010Z,21.31
2017-10-12T11:14:17.759Z,21.32
2017-10-12T11:15:24.347Z,21.28
2017-10-12T11:16:30.351Z,21.01
2017-10-12T11:17:36.130Z,20.85
2017-10-12T11:18:41.870Z,20.90
2017-10-12T11:19:47.637Z,20.93
2017-10-12T11:20:53.428Z,20.75
2017-10-12T11:21:59.184Z,20.80
2017-10-12T11:23:05.715Z,20.96
2017-10-12T11:24:13.639Z,20.88
2017-10-12T11:25:19.970Z,20.79
2017-10-12T11:26:25.746Z,20.76
2017-10-12T11:27:31.504Z,20.65
2017-10-12T11:28:37.248Z,20.56
2017-10-12T11:29:43.001Z,20.75
2017-10-12T11:30:48.749Z,20.55
2017-10-12T11:31:54.538Z,20.62
2017-10-12T11:33:01.061Z,20.64
2017-10-12T11:34:06.805Z,20.55
2017-10-12T11:35:12.593Z,20.45
2017-10-12T11:36:18.904Z,20.54
2017-10-12T11:37:24.683Z,20.35
2017-10-12T11:38:31.202Z,20.31
2017-10-12T11:39:36.958Z,20.48
2017-10-12T11:40:42.714Z,20.42
2017-10-12T11:41:49.233Z,20.35
2017-10-12T11:42:55.052Z,20.25
2017-10-12T11:44:00.864Z,20.33
2017-10-12T11:45:07.370Z,20.26
2017-10-12T11:46:13.242Z,20.30
2017-10-12T11:47:18.813Z,20.43
2017-10-12T11:48:24.662Z,20.46
2017-10-12T11:49:31.185Z,20.20
2017-10-12T11:50:36.745Z,20.09
2017-10-12T11:51:43.284Z,20.29
2017-10-12T11:52:49.052Z,20.04
2017-10-12T11:53:54.878Z,19.86
2017-10-12T11:55:00.256Z,19.98
2017-10-12T11:56:05.234Z,19.99
2017-10-12T11:57:11.568Z,20.06
2017-10-12T11:58:17.374Z,19.87
2017-10-12T11:59:23.208Z,19.89
2017-10-12T12:00:29.028Z,19.81
2017-10-12T12:01:35.600Z,19.89
2017-10-12T12:02:42.162Z,19.90
2017-10-12T12:03:48.724Z,19.88
2017-10-12T12:04:54.517Z,20.00
2017-10-12T12:06:00.278Z,19.94
2017-10-12T12:07:06.026Z,19.99
2017-10-12T12:08:12.403Z,20.04
2017-10-12T12:09:18.158Z,20.01
2017-10-12T12:10:23.760Z,19.94
2017-10-12T12:11:30.273Z,19.90
2017-10-12T12:12:36.030Z,19.86
2017-10-12T12:13:41.779Z,19.89
2017-10-12T12:14:47.525Z,19.98
2017-10-12T12:15:53.307Z,19.90
2017-10-12T12:16:59.840Z,19.94
2017-10-12T12:18:05.608Z,19.99
2017-10-12T12:19:11.385Z,20.05
2017-10-12T12:20:17.135Z,20.04
2017-10-12T12:21:22.918Z,20.00
2017-10-12T12:22:29.434Z,19.97
2017-10-12T12:23:35.186Z,20.05
2017-10-12T12:24:40.940Z,20.12
2017-10-12T12:25:46.684Z,20.22
2017-10-12T12:26:52.263Z,20.15
2017-10-12T12:27:58.007Z,19.92
2017-10-12T12:29:03.769Z,19.89
2017-10-12T12:30:09.521Z,19.98
2017-10-12T12:31:15.320Z,19.85
2017-10-12T12:32:21.854Z,19.88
2017-10-12T12:33:28.481Z,19.94
2017-10-12T12:34:34.285Z,20.00
2017-10-12T12:35:40.060Z,20.17
2017-10-12T12:36:45.813Z,20.32
2017-10-12T12:37:51.691Z,20.43
2017-10-12T12:38:58.209Z,20.49
2017-10-12T12:40:03.974Z,20.32
2017-10-12T12:41:09.720Z,20.42
2017-10-12T12:42:15.468Z,20.65
2017-10-12T12:43:21.253Z,20.75
2017-10-12T12:44:27.043Z,20.87
2017-10-12T12:45:32.589Z,20.87
2017-10-12T12:46:38.328Z,20.94
2017-10-12T12:47:44.100Z,20.49
2017-10-12T12:48:49.748Z,20.60
2017-10-12T12:49:55.500Z,20.68
2017-10-12T12:51:01.247Z,20.59
2017-10-12T12:52:06.997Z,20.62
2017-10-12T12:53:12.757Z,20.53
2017-10-12T12:54:18.522Z,20.54
2017-10-12T12:55:25.037Z,20.25
2017-10-12T12:56:30.833Z,19.98
2017-10-12T12:57:37.249Z,20.00
2017-10-12T12:58:42.990Z,20.29
2017-10-12T12:59:48.767Z,20.24
2017-10-12T13:00:55.280Z,20.27
2017-10-12T13:02:01.276Z,20.35
2017-10-12T13:03:07.853Z,20.33
2017-10-12T13:04:14.362Z,20.28
2017-10-12T13:05:20.208Z,20.18
2017-10-12T13:06:25.970Z,20.35
2017-10-12T13:07:32.481Z,20.20
2017-10-12T13:08:38.233Z,20.39
2017-10-12T13:09:43.981Z,20.47
2017-10-12T13:10:49.580Z,20.37
2017-10-12T13:11:55.370Z,20.10
2017-10-12T13:13:01.119Z,19.96
2017-10-12T13:14:06.901Z,20.14
2017-10-12T13:15:13.424Z,20.20
2017-10-12T13:16:19.212Z,20.29
2017-10-12T13:17:24.982Z,20.35
2017-10-12T13:18:30.728Z,20.00
2017-10-12T13:19:36.481Z,20.09
2017-10-12T13:20:42.039Z,20.17
2017-10-12T13:21:48.729Z,20.11
2017-10-12T13:22:54.476Z,20.12
2017-10-12T13:24:00.579Z,20.06
2017-10-12T13:25:06.329Z,20.04
2017-10-12T13:26:12.092Z,19.95
2017-10-12T13:27:18.632Z,19.88
2017-10-12T13:28:24.180Z,19.94
2017-10-12T13:29:31.013Z,20.10
2017-10-12T13:30:36.816Z,20.09
2017-10-12T13:31:42.568Z,20.21
2017-10-12T13:32:48.370Z,20.15
2017-10-12T13:33:54.918Z,19.92
2017-10-12T13:35:00.668Z,19.74
2017-10-12T13:36:06.410Z,19.69
2017-10-12T13:37:13.076Z,19.72
2017-10-12T13:38:19.673Z,19.85
2017-10-12T13:39:25.441Z,19.88
2017-10-12T13:40:31.190Z,19.95
2017-10-12T13:41:36.868Z,20.06
2017-10-12T13:42:43.389Z,20.10
2017-10-12T13:43:49.180Z,19.96
2017-10-12T13:44:55.709Z,19.97
2017-10-12T13:46:01.713Z,20.01
2017-10-12T13:47:07.531Z,19.99
2017-10-12T13:48:14.091Z,20.07
2017-10-12T13:49:19.762Z,20.03
2017-10-12T13:50:25.312Z,20.10
2017-10-12T13:51:31.113Z,20.14
2017-10-12T13:52:36.543Z,20.18
2017-10-12T13:53:43.075Z,20.17
2017-10-12T13:54:49.820Z,20.30
2017-10-12T13:55:55.601Z,20.24
2017-10-12T13:57:01.611Z,20.10
2017-10-12T13:58:07.559Z,19.97
2017-10-12T13:59:13.358Z,20.13
2017-10-12T14:00:18.260Z,20.17
2017-10-12T14:01:24.789Z,20.06
2017-10-12T14:02:30.833Z,20.07
2017-10-12T14:03:36.600Z,20.17
2017-10-12T14:04:43.116Z,20.09
2017-10-12T14:05:48.891Z,19.98
2017-10-12T14:06:55.426Z,19.90
2017-10-12T14:08:01.177Z,19.77
2017-10-12T14:09:06.593Z,19.92